KLTS/LTS METAR and TAF weather

Enter ICAO airport designator
Station Type Date Time Source
KLTS METAR 2021/03/01 20:56 UTC NOAA

KLTS 012056Z 02010KT 10SM BKN140 12/M04 A3034 RMK AO2A SLP277 T01201041 57020 $


Station Type Date Time Source
KLTS Decoded METAR 2021/03/01 20:56 UTC NOAA

Altus Air Force Base, OK, United States (KLTS) 34-39N 099-16W 420M
Mar 01, 2021 - 03:56 PM EST / 2021.03.01 2056 UTC
Wind: from the NNE (020 degrees) at 12 MPH (10 KT):0
Visibility: 10 mile(s):0
Sky conditions: mostly cloudy
Temperature: 53.6 F (12.0 C)
Dew Point: 24.6 F (-4.1 C)
Relative Humidity: 32%
Pressure (altimeter): 30.34 in. Hg (1027 hPa)
Pressure tendency: 0.06 inches (2.0 hPa) lower than three hours ago
ob: KLTS 012056Z 02010KT 10SM BKN140 12/M04 A3034 RMK AO2A SLP277 T01201041 57020
cycle: 21

Station Type Date Time Source
KLTS TAF 2021/03/01 17:06 UTC NOAA

TAF KLTS 011703Z 0117/0223 03012KT 9999 OVC120 510052 QNH3035INS
BECMG 0118/0119 03010G15KT 9999 BKN120 QNH3030INS
BECMG 0123/0124 VRB06KT 9999 BKN100 QNH3031INS
BECMG 0205/0206 VRB06KT 9999 SCT120 QNH3032INS
BECMG 0207/0208 25006KT 9999 SKC QNH3028INS
BECMG 0216/0217 19012KT 9999 SKC QNH3007INS TX13/0122Z TNM01/0213Z

Example: see airport list